createdAt,value
2022-12-05T00:04:31.816Z,998.19
2022-12-05T00:09:35.909Z,998.17
2022-12-05T00:14:40.065Z,998.17
2022-12-05T00:19:44.265Z,998.33
2022-12-05T00:24:48.460Z,998.31
2022-12-05T00:29:50.680Z,998.34
2022-12-05T00:34:54.865Z,998.35
2022-12-05T00:39:59.319Z,998.44
2022-12-05T00:45:03.179Z,998.42
2022-12-05T00:50:07.327Z,998.31
2022-12-05T00:55:11.521Z,998.26
2022-12-05T01:00:15.683Z,998.27
2022-12-05T01:05:19.855Z,998.34
2022-12-05T01:10:23.989Z,998.28
2022-12-05T01:15:28.187Z,998.36
2022-12-05T01:20:32.327Z,998.25
2022-12-05T01:25:36.470Z,998.22
2022-12-05T01:30:40.621Z,998.17
2022-12-05T01:35:44.796Z,998.17
2022-12-05T01:40:48.956Z,998.29
2022-12-05T01:45:53.220Z,998.29
2022-12-05T01:50:57.290Z,998.27
2022-12-05T01:56:01.454Z,998.28
2022-12-05T02:01:05.712Z,998.31
2022-12-05T02:06:09.812Z,998.25
2022-12-05T02:11:13.955Z,998.36
2022-12-05T02:16:16.282Z,998.32
2022-12-05T02:21:20.416Z,998.26
2022-12-05T02:26:22.681Z,998.29
2022-12-05T02:31:26.935Z,998.22
2022-12-05T02:36:29.134Z,998.21
2022-12-05T02:41:33.287Z,998.29
2022-12-05T02:46:37.472Z,998.17
2022-12-05T02:51:41.611Z,998.15
2022-12-05T02:56:45.798Z,998.12
2022-12-05T03:01:50.231Z,998.25
2022-12-05T03:06:54.131Z,998.17
2022-12-05T03:11:58.287Z,998.17
2022-12-05T03:17:02.525Z,998.19
2022-12-05T03:22:06.591Z,998.21
2022-12-05T03:27:10.788Z,998.20
2022-12-05T03:32:14.912Z,998.09
2022-12-05T03:37:19.113Z,998.04
2022-12-05T03:42:23.242Z,998.02
2022-12-05T03:47:27.443Z,997.97
2022-12-05T03:52:41.409Z,997.96
2022-12-05T03:57:35.772Z,997.92
2022-12-05T04:02:39.949Z,997.90
2022-12-05T04:07:44.196Z,997.88
2022-12-05T04:12:48.256Z,997.99
2022-12-05T04:17:53.942Z,997.99
2022-12-05T04:22:54.667Z,998.00
2022-12-05T04:27:58.873Z,997.88
2022-12-05T04:33:03.043Z,997.88
2022-12-05T04:38:07.175Z,997.90
2022-12-05T04:43:11.331Z,997.86
2022-12-05T04:48:15.520Z,997.88
2022-12-05T04:53:19.652Z,997.88
2022-12-05T04:58:23.879Z,997.82
2022-12-05T05:03:28.009Z,997.79
2022-12-05T05:08:32.185Z,997.81
2022-12-05T05:13:36.374Z,997.73
2022-12-05T05:18:40.509Z,997.77
2022-12-05T05:23:44.687Z,997.77
2022-12-05T05:28:48.831Z,997.81
2022-12-05T05:33:53.027Z,997.82
2022-12-05T05:38:57.168Z,997.87
2022-12-05T05:44:01.334Z,997.90
2022-12-05T05:49:05.529Z,997.88
2022-12-05T05:54:09.650Z,997.86
2022-12-05T05:59:13.865Z,997.85
2022-12-05T06:04:18.137Z,997.96
2022-12-05T06:09:20.256Z,997.95
2022-12-05T06:14:24.449Z,997.96
2022-12-05T06:19:28.596Z,998.04
2022-12-05T06:24:32.747Z,998.06
2022-12-05T06:29:36.917Z,998.07
2022-12-05T06:34:41.074Z,998.11
2022-12-05T06:39:45.274Z,998.03
2022-12-05T06:44:49.475Z,998.13
2022-12-05T06:49:53.577Z,998.13
2022-12-05T06:54:57.738Z,998.11
2022-12-05T07:00:01.975Z,998.17
2022-12-05T07:05:06.085Z,998.25
2022-12-05T07:10:10.235Z,998.21
2022-12-05T07:15:14.392Z,998.27
2022-12-05T07:20:18.580Z,998.26
2022-12-05T07:25:22.743Z,998.32
2022-12-05T07:30:26.893Z,998.33
2022-12-05T07:35:31.186Z,998.39
2022-12-05T07:40:35.247Z,998.36
2022-12-05T07:45:39.463Z,998.33
2022-12-05T07:50:43.582Z,998.35
2022-12-05T07:55:45.819Z,998.39
2022-12-05T08:00:50.101Z,998.36
2022-12-05T08:05:54.171Z,998.54
2022-12-05T08:10:58.339Z,998.63
2022-12-05T08:16:02.485Z,998.58
2022-12-05T08:21:06.681Z,998.66
2022-12-05T08:26:10.849Z,998.76
2022-12-05T08:31:15.052Z,998.86
2022-12-05T08:36:19.158Z,998.84
2022-12-05T08:41:23.304Z,998.82
2022-12-05T08:46:27.656Z,998.90
2022-12-05T08:51:31.675Z,998.96
2022-12-05T08:56:35.820Z,998.89
2022-12-05T09:01:40.126Z,998.89
2022-12-05T09:06:44.177Z,999.03
2022-12-05T09:11:48.300Z,999.00
2022-12-05T09:16:52.488Z,999.22
2022-12-05T09:21:56.654Z,999.20
2022-12-05T09:27:00.821Z,999.25
2022-12-05T09:32:04.948Z,999.20
2022-12-05T09:37:37.085Z,999.29
2022-12-05T09:42:13.357Z,999.20
2022-12-05T09:47:17.476Z,999.26
2022-12-05T09:52:21.644Z,999.22
2022-12-05T09:57:30.395Z,999.27
2022-12-05T10:02:29.992Z,999.09
2022-12-05T10:07:34.194Z,999.03
2022-12-05T10:12:38.306Z,999.11
2022-12-05T10:17:42.491Z,999.08
2022-12-05T10:22:46.615Z,999.07
2022-12-05T10:27:50.777Z,999.04
2022-12-05T10:32:54.926Z,999.23
2022-12-05T10:37:59.102Z,999.17
2022-12-05T10:43:03.307Z,999.20
2022-12-05T10:48:07.477Z,999.26
2022-12-05T10:53:11.650Z,999.25
2022-12-05T10:58:17.556Z,999.24
2022-12-05T11:03:19.944Z,999.19
2022-12-05T11:08:41.748Z,999.09
2022-12-05T11:13:28.263Z,999.11
2022-12-05T11:18:32.428Z,998.98
2022-12-05T11:23:36.623Z,998.97
2022-12-05T11:28:40.788Z,999.02
2022-12-05T11:33:44.952Z,998.96
2022-12-05T11:38:49.107Z,999.08
2022-12-05T11:43:53.235Z,999.01
2022-12-05T11:48:57.438Z,998.99
2022-12-05T11:54:01.647Z,999.09
2022-12-05T11:59:05.780Z,999.07
2022-12-05T12:04:09.935Z,999.14
2022-12-05T12:09:14.097Z,999.06
2022-12-05T12:14:18.274Z,999.14
2022-12-05T12:19:22.398Z,999.24
2022-12-05T12:24:26.594Z,999.16
2022-12-05T12:29:30.779Z,999.25
2022-12-05T12:34:34.893Z,999.18
2022-12-05T12:39:39.085Z,999.32
2022-12-05T12:44:43.256Z,999.26
2022-12-05T12:49:45.506Z,999.28
2022-12-05T12:55:03.379Z,999.27
2022-12-05T12:59:53.854Z,999.18
2022-12-05T13:04:58.395Z,999.18
2022-12-05T13:10:02.163Z,999.16
2022-12-05T13:15:06.335Z,999.11
2022-12-05T13:20:10.541Z,999.11
2022-12-05T13:25:14.666Z,999.16
2022-12-05T13:30:18.844Z,999.07
2022-12-05T13:35:23.009Z,999.12
2022-12-05T13:40:27.245Z,999.19
2022-12-05T13:45:31.356Z,999.21
2022-12-05T13:50:35.468Z,999.27
2022-12-05T13:55:39.676Z,999.26
2022-12-05T14:00:43.872Z,999.30
2022-12-05T14:05:48.016Z,999.32
2022-12-05T14:10:52.199Z,999.29
2022-12-05T14:15:56.311Z,999.25
2022-12-05T14:21:00.486Z,999.32
2022-12-05T14:26:08.733Z,999.28
2022-12-05T14:31:08.879Z,999.33
2022-12-05T14:36:13.040Z,999.36
2022-12-05T14:46:21.355Z,999.50
2022-12-05T14:51:25.488Z,999.48
2022-12-05T14:56:29.635Z,999.52
2022-12-05T15:01:33.902Z,999.53
2022-12-05T15:06:38.041Z,999.62
2022-12-05T15:11:42.142Z,999.60
2022-12-05T15:16:46.337Z,999.64
2022-12-05T15:21:50.474Z,999.60
2022-12-05T15:26:54.650Z,999.67
2022-12-05T15:31:58.784Z,999.65
2022-12-05T15:37:03.002Z,999.67
2022-12-05T15:42:07.161Z,999.73
2022-12-05T15:47:11.326Z,999.72
2022-12-05T15:52:15.451Z,999.79
2022-12-05T15:57:19.636Z,999.78
2022-12-05T16:02:23.838Z,999.81
2022-12-05T16:12:32.194Z,999.88
2022-12-05T16:17:36.299Z,1000.01
2022-12-05T16:22:40.439Z,1000.05
2022-12-05T16:27:44.613Z,1000.07
2022-12-05T16:32:48.820Z,1000.10
2022-12-05T16:37:52.953Z,1000.10
2022-12-05T16:42:57.120Z,1000.09
2022-12-05T16:48:01.339Z,1000.02
2022-12-05T16:53:05.447Z,1000.17
2022-12-05T16:58:09.616Z,1000.04
2022-12-05T17:03:33.547Z,1000.06
2022-12-05T17:08:18.016Z,1000.01
2022-12-05T17:13:22.129Z,1000.00
2022-12-05T17:18:31.213Z,1000.05
2022-12-05T17:28:34.629Z,1000.05
2022-12-05T17:33:38.799Z,1000.03
2022-12-05T17:38:42.941Z,1000.06
2022-12-05T17:43:47.162Z,1000.04
2022-12-05T17:48:51.284Z,1000.09
2022-12-05T17:53:55.427Z,1000.09
2022-12-05T17:59:01.778Z,1000.06
2022-12-05T18:04:03.776Z,1000.06
2022-12-05T18:09:07.933Z,1000.07
2022-12-05T18:14:12.104Z,1000.11
2022-12-05T18:19:14.385Z,1000.11
2022-12-05T18:24:18.536Z,1000.21
2022-12-05T18:29:22.700Z,1000.26
2022-12-05T18:34:26.896Z,1000.21
2022-12-05T18:39:31.036Z,1000.17
2022-12-05T18:44:35.212Z,1000.18
2022-12-05T18:49:39.364Z,1000.20
2022-12-05T18:54:43.563Z,1000.16
2022-12-05T18:59:47.721Z,1000.17
2022-12-05T19:04:51.897Z,1000.23
2022-12-05T19:09:56.029Z,1000.34
2022-12-05T19:15:00.687Z,1000.35
2022-12-05T19:20:04.393Z,1000.45
2022-12-05T19:25:08.563Z,1000.56
2022-12-05T19:30:12.711Z,1000.57
2022-12-05T19:35:16.883Z,1000.59
2022-12-05T19:40:21.062Z,1000.58
2022-12-05T19:45:25.195Z,1000.55
2022-12-05T19:50:29.335Z,1000.49
2022-12-05T19:55:33.534Z,1000.55
2022-12-05T20:00:37.727Z,1000.54
2022-12-05T20:05:41.898Z,1000.57
2022-12-05T20:10:46.019Z,1000.57
2022-12-05T20:15:50.171Z,1000.52
2022-12-05T20:20:54.393Z,1000.52
2022-12-05T20:25:58.514Z,1000.55
2022-12-05T20:31:02.749Z,1000.51
2022-12-05T20:36:06.893Z,1000.56
2022-12-05T20:41:11.036Z,1000.59
2022-12-05T20:46:15.291Z,1000.52
2022-12-05T20:51:19.350Z,1000.55
2022-12-05T20:56:23.503Z,1000.53
2022-12-05T21:01:27.797Z,1000.52
2022-12-05T21:06:31.833Z,1000.51
2022-12-05T21:11:35.988Z,1000.42
2022-12-05T21:16:40.214Z,1000.40
2022-12-05T21:21:44.338Z,1000.37
2022-12-05T21:26:48.535Z,1000.38
2022-12-05T21:31:52.689Z,1000.37
2022-12-05T21:36:56.876Z,1000.35
2022-12-05T21:42:01.047Z,1000.33
2022-12-05T21:47:07.176Z,1000.33
2022-12-05T21:52:09.369Z,1000.33
2022-12-05T21:57:13.486Z,1000.33
2022-12-05T22:02:17.698Z,1000.21
2022-12-05T22:07:21.829Z,1000.26
2022-12-05T22:12:26.023Z,1000.29
2022-12-05T22:17:30.155Z,1000.28
2022-12-05T22:22:34.310Z,1000.38
2022-12-05T22:27:38.514Z,1000.39
2022-12-05T22:32:42.695Z,1000.39
2022-12-05T22:37:46.867Z,1000.36
2022-12-05T22:42:51.021Z,1000.27
2022-12-05T22:47:55.154Z,1000.35
2022-12-05T22:52:59.352Z,1000.31
2022-12-05T22:58:03.460Z,1000.25
2022-12-05T23:03:07.733Z,1000.14
2022-12-05T23:08:11.845Z,1000.10
2022-12-05T23:13:15.996Z,1000.13
2022-12-05T23:18:20.161Z,1000.13
2022-12-05T23:23:24.310Z,1000.09
2022-12-05T23:28:28.473Z,1000.14
2022-12-05T23:33:32.648Z,1000.08
2022-12-05T23:38:36.799Z,1000.12
2022-12-05T23:43:41.044Z,1000.13
2022-12-05T23:48:43.248Z,1000.12
2022-12-05T23:53:45.522Z,1000.13
2022-12-05T23:58:49.672Z,1000.12
